createdAt,value
2022-09-06T00:00:28.318Z,97813.34
2022-09-06T00:02:57.025Z,97821.34
2022-09-06T00:05:25.466Z,97825.91
2022-09-06T00:07:53.463Z,97826.47
2022-09-06T00:10:21.943Z,97829.47
2022-09-06T00:12:50.142Z,97830.84
2022-09-06T00:15:19.048Z,97828.69
2022-09-06T00:17:48.920Z,97828.91
2022-09-06T00:20:17.454Z,97827.41
2022-09-06T00:22:45.475Z,97830.88
2022-09-06T00:25:13.864Z,97835.25
2022-09-06T00:27:42.364Z,97832.75
2022-09-06T00:30:12.332Z,97832.06
2022-09-06T00:32:41.224Z,97835.75
2022-09-06T00:35:10.967Z,97841.34
2022-09-06T00:37:38.944Z,97842.84
2022-09-06T00:40:08.511Z,97839.53
2022-09-06T00:42:36.616Z,97841.94
2022-09-06T00:45:05.700Z,97840.44
2022-09-06T00:47:35.717Z,97835.84
2022-09-06T00:50:06.009Z,97845.50
2022-09-06T00:52:36.954Z,97841.13
2022-09-06T00:55:07.657Z,97845.59
2022-09-06T00:57:35.939Z,97841.59
2022-09-06T01:00:06.984Z,97842.75
2022-09-06T01:02:35.199Z,97838.19
2022-09-06T01:05:04.887Z,97847.06
2022-09-06T01:07:49.160Z,97830.13
2022-09-06T01:10:37.487Z,97832.66
2022-09-06T01:13:14.861Z,97829.81
2022-09-06T01:15:54.573Z,97827.72
2022-09-06T01:18:33.244Z,97819.28
2022-09-06T01:21:41.424Z,97823.75
2022-09-06T01:24:35.690Z,97827.94
2022-09-06T01:27:35.183Z,97823.34
2022-09-06T01:30:07.369Z,97830.19
2022-09-06T01:32:43.073Z,97830.53
2022-09-06T01:35:19.491Z,97824.34
2022-09-06T01:37:48.500Z,97823.63
2022-09-06T01:40:17.200Z,97825.03
2022-09-06T01:42:49.363Z,97830.38
2022-09-06T01:45:21.996Z,97819.63
2022-09-06T01:48:00.996Z,97828.09
2022-09-06T01:50:45.622Z,97828.78
2022-09-06T01:53:24.553Z,97830.16
2022-09-06T01:56:00.280Z,97831.84
2022-09-06T01:58:53.251Z,97830.03
2022-09-06T02:01:29.179Z,97826.00
2022-09-06T02:04:05.206Z,97825.50
2022-09-06T02:06:39.115Z,97830.97
2022-09-06T02:09:10.256Z,97828.41
2022-09-06T02:11:44.096Z,97829.38
2022-09-06T02:14:18.231Z,97825.06
2022-09-06T02:16:52.614Z,97835.59
2022-09-06T02:19:25.973Z,97832.97
2022-09-06T02:21:55.841Z,97825.63
2022-09-06T02:24:30.582Z,97828.66
2022-09-06T02:26:59.506Z,97826.13
2022-09-06T02:29:27.737Z,97821.38
2022-09-06T02:32:02.753Z,97825.56
2022-09-06T02:34:31.298Z,97819.94
2022-09-06T02:37:00.003Z,97822.50
2022-09-06T02:39:28.223Z,97813.63
2022-09-06T02:41:56.973Z,97816.97
2022-09-06T02:44:25.180Z,97813.03
2022-09-06T02:46:56.999Z,97810.09
2022-09-06T02:49:26.727Z,97809.47
2022-09-06T02:51:55.224Z,97804.06
2022-09-06T02:54:23.204Z,97807.47
2022-09-06T02:56:52.474Z,97806.34
2022-09-06T02:59:20.785Z,97806.00
2022-09-06T03:01:48.848Z,97796.19
2022-09-06T03:04:16.844Z,97786.78
2022-09-06T03:06:46.655Z,97792.84
2022-09-06T03:09:14.906Z,97787.91
2022-09-06T03:11:43.295Z,97791.00
2022-09-06T03:14:11.180Z,97790.56
2022-09-06T03:16:39.672Z,97788.50
2022-09-06T03:19:07.443Z,97792.69
2022-09-06T03:21:35.981Z,97794.34
2022-09-06T03:24:05.583Z,97796.69
2022-09-06T03:26:33.512Z,97800.44
2022-09-06T03:29:01.301Z,97796.56
2022-09-06T03:31:29.431Z,97786.78
2022-09-06T03:33:57.179Z,97783.94
2022-09-06T03:36:25.309Z,97785.31
2022-09-06T03:38:54.032Z,97785.63
2022-09-06T03:41:23.499Z,97786.19
2022-09-06T03:43:51.260Z,97794.03
2022-09-06T03:46:19.445Z,97789.16
2022-09-06T03:48:47.255Z,97786.75
2022-09-06T03:51:15.836Z,97787.69
2022-09-06T03:53:43.625Z,97787.09
2022-09-06T03:56:11.742Z,97793.44
2022-09-06T03:58:40.836Z,97796.41
2022-09-06T04:01:10.434Z,97795.91
2022-09-06T04:03:39.687Z,97790.25
2022-09-06T04:06:08.367Z,97791.25
2022-09-06T04:08:38.127Z,97788.91
2022-09-06T04:11:07.078Z,97787.00
2022-09-06T04:13:35.849Z,97787.63
2022-09-06T04:16:05.968Z,97793.31
2022-09-06T04:18:34.697Z,97794.38
2022-09-06T04:21:02.804Z,97788.44
2022-09-06T04:23:31.188Z,97790.66
2022-09-06T04:26:00.704Z,97796.16
2022-09-06T04:28:29.145Z,97789.13
2022-09-06T04:31:04.028Z,97781.91
2022-09-06T04:33:35.590Z,97785.56
2022-09-06T04:36:05.465Z,97788.31
2022-09-06T04:38:38.193Z,97782.50
2022-09-06T04:41:07.130Z,97779.09
2022-09-06T04:43:34.903Z,97776.03
2022-09-06T04:46:19.667Z,97781.44
2022-09-06T04:48:49.166Z,97773.22
2022-09-06T04:51:16.972Z,97768.41
2022-09-06T04:53:45.097Z,97767.75
2022-09-06T04:56:15.940Z,97772.78
2022-09-06T04:58:44.588Z,97775.06
2022-09-06T05:01:12.410Z,97778.97
2022-09-06T05:03:40.577Z,97791.41
2022-09-06T05:06:12.768Z,97789.13
2022-09-06T05:08:42.015Z,97785.13
2022-09-06T05:11:10.981Z,97779.47
2022-09-06T05:13:39.712Z,97784.03
2022-09-06T05:16:08.661Z,97780.47
2022-09-06T05:18:37.340Z,97782.63
2022-09-06T05:21:05.304Z,97773.31
2022-09-06T05:23:35.043Z,97775.31
2022-09-06T05:26:03.369Z,97775.22
2022-09-06T05:28:31.466Z,97772.00
2022-09-06T05:31:09.821Z,97793.63
2022-09-06T05:33:38.523Z,97786.72
2022-09-06T05:36:07.616Z,97777.94
2022-09-06T05:38:37.159Z,97781.81
2022-09-06T05:41:06.156Z,97781.03
2022-09-06T05:43:33.933Z,97780.03
2022-09-06T05:46:01.803Z,97773.91
2022-09-06T05:48:34.627Z,97771.97
2022-09-06T05:51:06.403Z,97781.28
2022-09-06T05:53:40.793Z,97779.34
2022-09-06T05:56:09.573Z,97770.13
2022-09-06T05:58:38.580Z,97763.47
2022-09-06T06:01:17.138Z,97757.53
2022-09-06T06:03:51.997Z,97761.06
2022-09-06T06:06:20.575Z,97754.47
2022-09-06T06:08:50.341Z,97760.06
2022-09-06T06:11:18.909Z,97764.22
2022-09-06T06:13:47.488Z,97772.31
2022-09-06T06:16:17.374Z,97767.81
2022-09-06T06:18:51.299Z,97768.38
2022-09-06T06:21:21.647Z,97775.50
2022-09-06T06:23:53.738Z,97779.06
2022-09-06T06:26:21.589Z,97771.28
2022-09-06T06:28:50.128Z,97769.56
2022-09-06T06:31:19.383Z,97778.41
2022-09-06T06:33:47.479Z,97785.53
2022-09-06T06:36:21.835Z,97785.03
2022-09-06T06:38:53.043Z,97787.06
2022-09-06T06:41:23.965Z,97797.41
2022-09-06T06:43:54.026Z,97801.59
2022-09-06T06:46:23.475Z,97801.31
2022-09-06T06:48:54.739Z,97788.34
2022-09-06T06:51:25.235Z,97793.09
2022-09-06T06:53:54.702Z,97799.59
2022-09-06T06:56:24.085Z,97795.19
2022-09-06T06:58:54.209Z,97790.53
2022-09-06T07:01:23.348Z,97793.03
2022-09-06T07:03:51.860Z,97791.38
2022-09-06T07:06:21.233Z,97782.75
2022-09-06T07:08:50.017Z,97793.50
2022-09-06T07:11:21.732Z,97791.47
2022-09-06T07:13:52.519Z,97794.69
2022-09-06T07:16:22.121Z,97791.06
2022-09-06T07:18:53.351Z,97786.16
2022-09-06T07:21:41.385Z,97785.28
2022-09-06T07:24:10.076Z,97781.72
2022-09-06T07:26:40.650Z,97780.72
2022-09-06T07:29:10.053Z,97794.34
2022-09-06T07:34:28.727Z,97795.88
2022-09-06T07:36:57.045Z,97787.91
2022-09-06T07:39:25.192Z,97790.22
2022-09-06T07:41:54.397Z,97786.50
2022-09-06T07:44:22.588Z,97784.50
2022-09-06T07:46:52.625Z,97786.34
2022-09-06T07:49:21.226Z,97788.09
2022-09-06T07:51:49.414Z,97789.34
2022-09-06T07:54:33.325Z,97768.34
2022-09-06T07:57:03.864Z,97775.66
2022-09-06T07:59:32.000Z,97770.03
2022-09-06T08:01:59.805Z,97774.06
2022-09-06T08:04:27.945Z,97770.88
2022-09-06T08:09:45.147Z,97773.47
2022-09-06T08:12:14.293Z,97774.84
2022-09-06T08:14:42.229Z,97777.94
2022-09-06T08:17:10.026Z,97784.88
2022-09-06T08:19:37.808Z,97785.91
2022-09-06T08:22:05.677Z,97770.47
2022-09-06T08:24:36.087Z,97774.84
2022-09-06T08:27:07.811Z,97774.81
2022-09-06T08:29:37.313Z,97777.53
2022-09-06T08:32:05.133Z,97785.00
2022-09-06T08:34:33.804Z,97773.13
2022-09-06T08:37:01.627Z,97770.03
2022-09-06T08:39:29.895Z,97763.97
2022-09-06T08:42:01.981Z,97768.75
2022-09-06T08:47:25.786Z,97766.09
2022-09-06T08:49:57.545Z,97763.72
2022-09-06T08:52:49.554Z,97762.06
2022-09-06T08:55:36.951Z,97752.19
2022-09-06T08:58:20.630Z,97753.41
2022-09-06T09:00:53.585Z,97750.22
2022-09-06T09:03:25.647Z,97750.00
2022-09-06T09:05:55.393Z,97743.28
2022-09-06T09:08:28.888Z,97748.31
2022-09-06T09:11:02.408Z,97740.59
2022-09-06T09:13:36.110Z,97735.91
2022-09-06T09:16:03.934Z,97740.97
2022-09-06T09:18:36.305Z,97740.91
2022-09-06T09:21:04.359Z,97736.19
2022-09-06T09:23:32.403Z,97744.31
2022-09-06T09:26:06.751Z,97742.31
2022-09-06T09:28:35.468Z,97740.69
2022-09-06T09:31:04.244Z,97737.09
2022-09-06T09:33:37.402Z,97734.22
2022-09-06T09:36:09.203Z,97735.34
2022-09-06T09:38:43.798Z,97735.63
2022-09-06T09:41:24.962Z,97725.81
2022-09-06T09:44:03.680Z,97720.75
2022-09-06T09:46:34.199Z,97715.38
2022-09-06T09:49:07.522Z,97719.03
2022-09-06T09:51:37.017Z,97719.13
2022-09-06T09:54:07.111Z,97711.31
2022-09-06T09:56:40.425Z,97713.09
2022-09-06T09:59:19.590Z,97709.50
2022-09-06T10:01:47.343Z,97708.47
2022-09-06T10:07:14.453Z,97697.16
2022-09-06T10:09:47.840Z,97702.38
2022-09-06T10:12:19.946Z,97697.78
2022-09-06T10:14:49.891Z,97697.56
2022-09-06T10:17:29.124Z,97694.38
2022-09-06T10:20:06.727Z,97684.97
2022-09-06T10:22:48.054Z,97689.53
2022-09-06T10:25:44.051Z,97685.78
2022-09-06T10:28:29.744Z,97692.72
2022-09-06T10:31:11.071Z,97687.00
2022-09-06T10:33:50.771Z,97687.31
2022-09-06T10:36:26.135Z,97688.44
2022-09-06T10:39:01.690Z,97685.03
2022-09-06T10:41:49.699Z,97675.44
2022-09-06T10:44:31.971Z,97679.03
2022-09-06T10:47:12.611Z,97675.84
2022-09-06T10:49:45.428Z,97681.59
2022-09-06T10:52:20.386Z,97673.00
2022-09-06T10:54:48.440Z,97669.47
2022-09-06T11:00:13.703Z,97683.09
2022-09-06T11:02:48.566Z,97677.72
2022-09-06T11:11:08.697Z,97663.41
2022-09-06T11:13:36.608Z,97666.38
2022-09-06T11:16:09.093Z,97660.91
2022-09-06T11:18:43.014Z,97653.25
2022-09-06T11:21:38.542Z,97664.19
2022-09-06T11:24:13.609Z,97658.88
2022-09-06T11:26:46.258Z,97651.44
2022-09-06T11:29:24.027Z,97657.69
2022-09-06T11:34:54.022Z,97643.41
2022-09-06T11:37:27.218Z,97650.91
2022-09-06T11:43:17.398Z,97633.75
2022-09-06T11:45:49.068Z,97630.50
2022-09-06T11:48:46.527Z,97623.88
2022-09-06T11:51:33.908Z,97623.19
2022-09-06T11:54:07.331Z,97621.63
2022-09-06T11:56:42.459Z,97624.94
2022-09-06T11:59:22.431Z,97625.03
2022-09-06T12:02:02.647Z,97615.28
2022-09-06T12:05:09.345Z,97612.31
2022-09-06T12:07:38.660Z,97609.00
2022-09-06T12:10:40.008Z,97608.66
2022-09-06T12:13:44.226Z,97604.31
2022-09-06T12:16:12.995Z,97607.06
2022-09-06T12:19:01.271Z,97608.22
2022-09-06T12:21:42.812Z,97597.28
2022-09-06T12:24:49.115Z,97596.63
2022-09-06T12:27:18.273Z,97606.13
2022-09-06T12:29:58.059Z,97596.31
2022-09-06T12:32:31.704Z,97594.44
2022-09-06T12:37:56.993Z,97588.44
2022-09-06T12:40:29.374Z,97589.94
2022-09-06T12:42:58.054Z,97592.09
2022-09-06T12:45:27.844Z,97586.16
2022-09-06T12:48:07.106Z,97576.53
2022-09-06T12:50:35.127Z,97581.16
2022-09-06T12:53:05.737Z,97579.19
2022-09-06T12:55:35.292Z,97578.53
2022-09-06T12:58:08.022Z,97561.13
2022-09-06T13:00:41.488Z,97569.50
2022-09-06T13:03:30.612Z,97564.59
2022-09-06T13:06:01.611Z,97556.81
2022-09-06T13:08:36.066Z,97559.53
2022-09-06T13:11:10.492Z,97556.59
2022-09-06T13:13:38.875Z,97559.53
2022-09-06T13:16:08.094Z,97545.53
2022-09-06T13:18:38.363Z,97545.63
2022-09-06T13:21:08.205Z,97545.72
2022-09-06T13:23:42.726Z,97549.41
2022-09-06T13:26:10.539Z,97540.47
2022-09-06T13:28:39.011Z,97541.56
2022-09-06T13:31:10.770Z,97538.97
2022-09-06T13:33:39.458Z,97534.16
2022-09-06T13:36:20.637Z,97540.47
2022-09-06T13:38:48.832Z,97535.16
2022-09-06T13:41:40.939Z,97527.94
2022-09-06T13:44:20.066Z,97534.97
2022-09-06T13:46:53.450Z,97528.97
2022-09-06T13:49:21.226Z,97527.91
2022-09-06T13:51:48.904Z,97525.97
2022-09-06T13:54:17.400Z,97523.84
2022-09-06T13:56:45.646Z,97523.28
2022-09-06T13:59:14.025Z,97518.53
2022-09-06T14:01:44.135Z,97519.81
2022-09-06T14:04:16.581Z,97529.84
2022-09-06T14:06:44.353Z,97528.25
2022-09-06T14:09:12.761Z,97513.75
2022-09-06T14:11:42.889Z,97521.38
2022-09-06T14:14:14.424Z,97516.63
2022-09-06T14:16:42.235Z,97520.09
2022-09-06T14:19:10.388Z,97517.03
2022-09-06T14:21:39.596Z,97517.75
2022-09-06T14:24:08.208Z,97528.13
2022-09-06T14:26:38.683Z,97523.81
2022-09-06T14:29:07.245Z,97523.06
2022-09-06T14:31:35.088Z,97521.09
2022-09-06T14:34:04.040Z,97517.31
2022-09-06T14:36:33.234Z,97524.19
2022-09-06T14:39:03.116Z,97517.66
2022-09-06T14:41:31.659Z,97516.44
2022-09-06T14:44:00.612Z,97513.06
2022-09-06T14:46:30.127Z,97516.13
2022-09-06T14:48:59.314Z,97516.31
2022-09-06T14:51:27.351Z,97506.47
2022-09-06T14:53:57.596Z,97506.63
2022-09-06T14:56:27.796Z,97505.72
2022-09-06T14:58:57.418Z,97507.97
2022-09-06T15:01:29.002Z,97502.00
2022-09-06T15:03:59.673Z,97500.47
2022-09-06T15:06:29.018Z,97502.13
2022-09-06T15:08:59.523Z,97500.53
2022-09-06T15:11:34.774Z,97494.97
2022-09-06T15:14:04.006Z,97492.22
2022-09-06T15:16:33.074Z,97499.69
2022-09-06T15:19:02.712Z,97486.00
2022-09-06T15:21:31.190Z,97488.41
2022-09-06T15:23:59.849Z,97487.25
2022-09-06T15:26:27.990Z,97489.63
2022-09-06T15:28:57.371Z,97487.94
2022-09-06T15:31:25.563Z,97483.75
2022-09-06T15:33:53.909Z,97478.22
2022-09-06T15:36:22.525Z,97485.06
2022-09-06T15:38:54.239Z,97484.38
2022-09-06T15:41:25.277Z,97483.63
2022-09-06T15:43:55.585Z,97481.44
2022-09-06T15:46:45.109Z,97476.78
2022-09-06T15:49:15.773Z,97473.22
2022-09-06T15:51:43.722Z,97475.69
2022-09-06T15:54:13.214Z,97475.88
2022-09-06T15:56:41.339Z,97464.75
2022-09-06T15:59:09.794Z,97471.78
2022-09-06T16:01:40.112Z,97476.94
2022-09-06T16:04:08.556Z,97466.81
2022-09-06T16:06:38.784Z,97465.97
2022-09-06T16:09:09.658Z,97462.94
2022-09-06T16:11:38.270Z,97468.91
2022-09-06T16:14:07.615Z,97463.31
2022-09-06T16:16:36.088Z,97445.28
2022-09-06T16:19:05.743Z,97455.94
2022-09-06T16:21:35.231Z,97451.69
2022-09-06T16:24:06.205Z,97457.91
2022-09-06T16:26:36.299Z,97465.53
2022-09-06T16:29:07.514Z,97450.75
2022-09-06T16:31:39.958Z,97450.94
2022-09-06T16:34:10.597Z,97451.53
2022-09-06T16:36:38.435Z,97455.16
2022-09-06T16:39:08.125Z,97460.72
2022-09-06T16:41:39.984Z,97455.47
2022-09-06T16:44:08.457Z,97460.94
2022-09-06T16:46:36.449Z,97451.91
2022-09-06T16:49:04.797Z,97457.13
2022-09-06T16:51:33.977Z,97451.53
2022-09-06T16:54:02.434Z,97453.22
2022-09-06T16:56:33.572Z,97455.25
2022-09-06T16:59:04.683Z,97455.03
2022-09-06T17:01:33.424Z,97446.66
2022-09-06T17:04:02.492Z,97444.69
2022-09-06T17:06:30.736Z,97446.69
2022-09-06T17:09:01.080Z,97454.72
2022-09-06T17:11:29.867Z,97458.31
2022-09-06T17:13:59.035Z,97454.47
2022-09-06T17:16:44.447Z,97453.38
2022-09-06T17:19:13.574Z,97450.19
2022-09-06T17:21:41.836Z,97443.50
2022-09-06T17:24:11.655Z,97451.06
2022-09-06T17:26:41.033Z,97452.34
2022-09-06T17:29:09.553Z,97451.59
2022-09-06T17:31:38.183Z,97446.44
2022-09-06T17:34:07.124Z,97446.03
2022-09-06T17:36:36.443Z,97448.06
2022-09-06T17:39:06.458Z,97438.94
2022-09-06T17:41:38.920Z,97442.53
2022-09-06T17:44:07.639Z,97436.25
2022-09-06T17:46:35.469Z,97440.97
2022-09-06T17:49:05.643Z,97439.41
2022-09-06T17:51:34.238Z,97444.16
2022-09-06T17:54:02.443Z,97452.88
2022-09-06T17:56:31.075Z,97448.47
2022-09-06T17:59:01.860Z,97453.19
2022-09-06T18:01:32.056Z,97466.56
2022-09-06T18:04:00.778Z,97468.16
2022-09-06T18:06:30.555Z,97465.78
2022-09-06T18:09:03.322Z,97472.09
2022-09-06T18:11:33.897Z,97474.44
2022-09-06T18:14:05.388Z,97486.97
2022-09-06T18:16:34.857Z,97491.28
2022-09-06T18:19:04.626Z,97487.25
2022-09-06T18:21:48.567Z,97493.13
2022-09-06T18:24:17.070Z,97495.06
2022-09-06T18:26:45.982Z,97485.97
2022-09-06T18:29:18.287Z,97504.13
2022-09-06T18:31:46.260Z,97500.50
2022-09-06T18:34:16.278Z,97493.97
2022-09-06T18:36:44.144Z,97501.34
2022-09-06T18:39:13.502Z,97502.16
2022-09-06T18:41:58.655Z,97500.56
2022-09-06T18:44:32.300Z,97512.72
2022-09-06T18:47:02.058Z,97519.53
2022-09-06T18:49:30.835Z,97512.72
2022-09-06T18:51:58.992Z,97516.53
2022-09-06T18:54:27.385Z,97520.81
2022-09-06T18:56:55.299Z,97520.47
2022-09-06T18:59:23.651Z,97528.16
2022-09-06T19:01:53.027Z,97528.97
2022-09-06T19:04:21.453Z,97516.19
2022-09-06T19:06:49.444Z,97517.81
2022-09-06T19:09:18.194Z,97521.28
2022-09-06T19:11:49.259Z,97522.78
2022-09-06T19:14:17.178Z,97520.69
2022-09-06T19:16:45.388Z,97521.06
2022-09-06T19:19:14.668Z,97519.84
2022-09-06T19:26:56.246Z,97516.31
2022-09-06T19:29:24.134Z,97509.78
2022-09-06T19:31:52.992Z,97505.91
2022-09-06T19:34:22.802Z,97512.34
2022-09-06T19:36:55.049Z,97510.63
2022-09-06T19:39:22.937Z,97506.25
2022-09-06T19:41:51.044Z,97503.75
2022-09-06T19:44:20.717Z,97509.34
2022-09-06T19:46:49.200Z,97506.91
2022-09-06T19:49:19.505Z,97500.22
2022-09-06T19:51:50.860Z,97491.44
2022-09-06T19:54:19.801Z,97493.56
2022-09-06T19:56:48.090Z,97485.94
2022-09-06T19:59:17.990Z,97486.63
2022-09-06T20:01:47.231Z,97487.84
2022-09-06T20:04:16.110Z,97490.13
2022-09-06T20:06:43.961Z,97492.53
2022-09-06T20:09:15.766Z,97498.44
2022-09-06T20:11:44.012Z,97508.09
2022-09-06T20:14:13.433Z,97503.78
2022-09-06T20:16:42.606Z,97507.41
2022-09-06T20:19:12.304Z,97495.81
2022-09-06T20:21:40.196Z,97495.34
2022-09-06T20:24:08.791Z,97497.94
2022-09-06T20:26:38.194Z,97500.16
2022-09-06T20:29:07.353Z,97499.84
2022-09-06T20:31:37.492Z,97496.69
2022-09-06T20:34:06.885Z,97491.69
2022-09-06T20:36:34.869Z,97484.16
2022-09-06T20:39:03.361Z,97485.38
2022-09-06T20:41:32.091Z,97483.63
2022-09-06T20:44:01.788Z,97477.00
2022-09-06T20:46:31.411Z,97477.59
2022-09-06T20:49:04.866Z,97482.44
2022-09-06T20:51:33.984Z,97480.75
2022-09-06T20:54:03.343Z,97474.69
2022-09-06T20:56:35.322Z,97476.47
2022-09-06T20:59:07.318Z,97467.47
2022-09-06T21:01:37.390Z,97470.53
2022-09-06T21:04:07.743Z,97471.75
2022-09-06T21:06:36.816Z,97470.53
2022-09-06T21:09:05.982Z,97463.56
2022-09-06T21:11:34.198Z,97464.72
2022-09-06T21:14:02.679Z,97467.00
2022-09-06T21:16:32.198Z,97466.00
2022-09-06T21:19:02.232Z,97464.41
2022-09-06T21:21:32.405Z,97467.81
2022-09-06T21:24:01.578Z,97473.78
2022-09-06T21:26:29.926Z,97468.94
2022-09-06T21:28:58.305Z,97478.19
2022-09-06T21:31:28.084Z,97479.38
2022-09-06T21:33:58.983Z,97484.66
2022-09-06T21:36:29.853Z,97480.69
2022-09-06T21:38:59.493Z,97482.41
2022-09-06T21:41:28.881Z,97483.13
2022-09-06T21:43:58.531Z,97489.94
2022-09-06T21:46:32.595Z,97487.91
2022-09-06T21:49:05.061Z,97490.09
2022-09-06T21:51:33.439Z,97490.50
2022-09-06T21:54:04.661Z,97492.19
2022-09-06T21:56:33.912Z,97495.94
2022-09-06T21:59:02.144Z,97489.28
2022-09-06T22:01:33.231Z,97493.25
2022-09-06T22:04:03.376Z,97495.19
2022-09-06T22:06:32.759Z,97497.38
2022-09-06T22:09:03.941Z,97499.09
2022-09-06T22:11:34.984Z,97488.97
2022-09-06T22:14:05.435Z,97492.94
2022-09-06T22:16:35.307Z,97492.69
2022-09-06T22:19:06.064Z,97482.91
2022-09-06T22:21:34.644Z,97492.59
2022-09-06T22:24:04.958Z,97496.25
2022-09-06T22:26:35.263Z,97496.97
2022-09-06T22:29:05.382Z,97496.41
2022-09-06T22:31:35.486Z,97494.69
2022-09-06T22:34:05.444Z,97500.03
2022-09-06T22:36:33.608Z,97493.38
2022-09-06T22:39:01.891Z,97492.69
2022-09-06T22:41:32.254Z,97488.34
2022-09-06T22:44:01.422Z,97482.41
2022-09-06T22:46:29.723Z,97485.69
2022-09-06T22:48:57.846Z,97489.06
2022-09-06T22:51:27.133Z,97491.34
2022-09-06T22:53:55.281Z,97491.34
2022-09-06T22:56:23.193Z,97485.00
2022-09-06T22:58:51.416Z,97486.22
2022-09-06T23:01:19.386Z,97483.81
2022-09-06T23:03:48.446Z,97478.25
2022-09-06T23:06:16.418Z,97474.19
2022-09-06T23:08:46.056Z,97472.88
2022-09-06T23:11:15.599Z,97472.88
2022-09-06T23:13:44.416Z,97465.00
2022-09-06T23:16:14.136Z,97463.16
2022-09-06T23:18:42.555Z,97469.69
2022-09-06T23:21:12.070Z,97467.66
2022-09-06T23:23:40.959Z,97463.59
2022-09-06T23:26:12.779Z,97461.75
2022-09-06T23:28:41.534Z,97463.56
2022-09-06T23:31:11.764Z,97461.13
2022-09-06T23:33:40.680Z,97455.25
2022-09-06T23:36:10.855Z,97445.88
2022-09-06T23:38:40.805Z,97442.38
2022-09-06T23:41:10.726Z,97440.50
2022-09-06T23:43:39.847Z,97439.69
2022-09-06T23:46:08.158Z,97447.03
2022-09-06T23:48:36.785Z,97446.16
2022-09-06T23:51:05.222Z,97442.25
2022-09-06T23:53:34.077Z,97441.97
2022-09-06T23:56:02.277Z,97439.97
2022-09-06T23:58:31.897Z,97440.50
